Deep River, Iowa
Current Conditions -  °F | °C
As of 9:15 AM on Thursday 30 Oct 2014 (Local Time) from KGGI Reporting Station
Light Rain Light Rain  
Wind Chill: 36°   Ceiling: 7500
Heat Index: 42°   Visibility: 10mi
Dew Point: 37°   Wind: 10mph
Humidity: 83%   Direction: 130°SE
Pressure: 30.04"   Gusts: NA
Location:  41.58°N, 92.37°W
Report Text: KGGI 301415Z AUTO 13009KT 10SM -RA SCT055 BKN075 OVC095 06/03 A3004 RMK AO2 T00570030
Loading
Personal Weather Stations






























Interactive Weather Map New forecast layout! Learn more

10-Day Weather Forecast

Advertisements
Track Severe Weather on mobile